Terminal Aerodrome Forecast
Issued by NWS Tampa Bay Area, FL

Home | Current Version | Previous Version | Text Only | Print | Product List | Glossary On
Versions: 1 2 3 4 5 6 7 8 9 10 11 12 13 14 15 16 17 18 19
000
FTUS42 KTBW 070539
TAFSRQ
TAF
KSRQ 070539Z 0706/0806 11004KT P6SM FEW250
     FM071400 13005KT P6SM FEW025 SCT250
     FM071700 25008KT P6SM VCTS SCT040CB SCT100 BKN250
     FM080000 11005KT P6SM FEW250=

USA.gov is the U.S. government's official web portal to all federal, state and local government web resources and services.